sensor_id;sensor_type;location;lat;lon;timestamp;P1;durP1;ratioP1;P2;durP2;ratioP2
80987;SDS011;70452;39.386;-3.210;2023-10-08T00:01:42;7.20;;;1.20;;
80987;SDS011;70452;39.386;-3.210;2023-10-08T00:04:18;6.75;;;1.20;;
80987;SDS011;70452;39.386;-3.210;2023-10-08T00:06:53;5.97;;;1.23;;
80987;SDS011;70452;39.386;-3.210;2023-10-08T00:09:24;7.13;;;1.27;;
80987;SDS011;70452;39.386;-3.210;2023-10-08T00:12:17;8.05;;;1.05;;
80987;SDS011;70452;39.386;-3.210;2023-10-08T00:14:50;8.30;;;1.50;;
80987;SDS011;70452;39.386;-3.210;2023-10-08T00:17:36;9.02;;;2.20;;
80987;SDS011;70452;39.386;-3.210;2023-10-08T00:23:35;11.68;;;1.75;;
80987;SDS011;70452;39.386;-3.210;2023-10-08T00:26:18;8.63;;;1.73;;
80987;SDS011;70452;39.386;-3.210;2023-10-08T00:31:26;7.03;;;1.52;;
80987;SDS011;70452;39.386;-3.210;2023-10-08T00:34:06;8.00;;;1.70;;
80987;SDS011;70452;39.386;-3.210;2023-10-08T00:36:38;8.20;;;1.52;;
80987;SDS011;70452;39.386;-3.210;2023-10-08T00:39:23;9.07;;;3.00;;
80987;SDS011;70452;39.386;-3.210;2023-10-08T00:42:20;9.30;;;2.42;;
80987;SDS011;70452;39.386;-3.210;2023-10-08T00:44:56;6.35;;;2.22;;
80987;SDS011;70452;39.386;-3.210;2023-10-08T00:47:31;7.90;;;1.88;;
80987;SDS011;70452;39.386;-3.210;2023-10-08T00:50:17;7.90;;;2.17;;
80987;SDS011;70452;39.386;-3.210;2023-10-08T00:52:59;8.73;;;2.15;;
80987;SDS011;70452;39.386;-3.210;2023-10-08T00:56:03;7.55;;;2.00;;
80987;SDS011;70452;39.386;-3.210;2023-10-08T00:58:40;8.38;;;2.58;;
80987;SDS011;70452;39.386;-3.210;2023-10-08T01:01:36;8.05;;;1.77;;
80987;SDS011;70452;39.386;-3.210;2023-10-08T01:04:05;9.45;;;2.58;;
80987;SDS011;70452;39.386;-3.210;2023-10-08T01:06:37;9.07;;;2.83;;
80987;SDS011;70452;39.386;-3.210;2023-10-08T01:09:16;12.70;;;3.08;;
80987;SDS011;70452;39.386;-3.210;2023-10-08T01:14:44;9.35;;;2.97;;
80987;SDS011;70452;39.386;-3.210;2023-10-08T01:17:33;7.70;;;2.88;;
80987;SDS011;70452;39.386;-3.210;2023-10-08T01:20:15;8.98;;;2.83;;
80987;SDS011;70452;39.386;-3.210;2023-10-08T01:22:59;6.47;;;2.67;;
80987;SDS011;70452;39.386;-3.210;2023-10-08T01:25:35;11.80;;;2.83;;
80987;SDS011;70452;39.386;-3.210;2023-10-08T01:28:13;9.13;;;3.00;;
80987;SDS011;70452;39.386;-3.210;2023-10-08T01:30:57;8.27;;;3.03;;
80987;SDS011;70452;39.386;-3.210;2023-10-08T01:33:37;9.27;;;2.63;;
80987;SDS011;70452;39.386;-3.210;2023-10-08T01:36:29;9.02;;;3.20;;
80987;SDS011;70452;39.386;-3.210;2023-10-08T01:39:12;10.32;;;3.28;;
80987;SDS011;70452;39.386;-3.210;2023-10-08T01:41:51;8.98;;;3.00;;
80987;SDS011;70452;39.386;-3.210;2023-10-08T01:44:44;13.98;;;4.75;;
80987;SDS011;70452;39.386;-3.210;2023-10-08T01:47:16;10.05;;;3.80;;
80987;SDS011;70452;39.386;-3.210;2023-10-08T01:50:03;6.88;;;3.25;;
80987;SDS011;70452;39.386;-3.210;2023-10-08T01:53:03;9.40;;;2.80;;
80987;SDS011;70452;39.386;-3.210;2023-10-08T01:55:41;9.80;;;3.28;;
80987;SDS011;70452;39.386;-3.210;2023-10-08T01:58:26;9.70;;;3.83;;
80987;SDS011;70452;39.386;-3.210;2023-10-08T02:01:04;12.98;;;4.22;;
80987;SDS011;70452;39.386;-3.210;2023-10-08T02:03:44;9.98;;;3.42;;
80987;SDS011;70452;39.386;-3.210;2023-10-08T02:06:19;9.32;;;3.63;;
80987;SDS011;70452;39.386;-3.210;2023-10-08T02:08:56;11.48;;;4.50;;
80987;SDS011;70452;39.386;-3.210;2023-10-08T02:11:46;11.80;;;4.40;;
80987;SDS011;70452;39.386;-3.210;2023-10-08T02:14:36;13.15;;;4.32;;
80987;SDS011;70452;39.386;-3.210;2023-10-08T02:17:01;10.60;;;4.25;;
80987;SDS011;70452;39.386;-3.210;2023-10-08T02:19:54;12.35;;;4.47;;
80987;SDS011;70452;39.386;-3.210;2023-10-08T02:22:29;11.65;;;4.50;;
80987;SDS011;70452;39.386;-3.210;2023-10-08T02:25:17;10.63;;;4.07;;
80987;SDS011;70452;39.386;-3.210;2023-10-08T02:27:46;10.63;;;4.22;;
80987;SDS011;70452;39.386;-3.210;2023-10-08T02:30:21;9.93;;;4.05;;
80987;SDS011;70452;39.386;-3.210;2023-10-08T02:33:01;10.70;;;4.20;;
80987;SDS011;70452;39.386;-3.210;2023-10-08T02:35:46;13.75;;;4.78;;
80987;SDS011;70452;39.386;-3.210;2023-10-08T02:38:19;8.73;;;3.88;;
80987;SDS011;70452;39.386;-3.210;2023-10-08T02:40:49;10.80;;;4.38;;
80987;SDS011;70452;39.386;-3.210;2023-10-08T02:43:38;10.30;;;4.22;;
80987;SDS011;70452;39.386;-3.210;2023-10-08T02:46:19;10.13;;;4.13;;
80987;SDS011;70452;39.386;-3.210;2023-10-08T02:48:55;10.75;;;4.35;;
80987;SDS011;70452;39.386;-3.210;2023-10-08T02:52:00;10.90;;;3.88;;
80987;SDS011;70452;39.386;-3.210;2023-10-08T02:54:32;10.10;;;4.57;;
80987;SDS011;70452;39.386;-3.210;2023-10-08T02:57:20;12.55;;;4.80;;
80987;SDS011;70452;39.386;-3.210;2023-10-08T02:59:46;11.32;;;4.50;;
80987;SDS011;70452;39.386;-3.210;2023-10-08T03:02:20;14.02;;;4.70;;
80987;SDS011;70452;39.386;-3.210;2023-10-08T03:04:58;12.95;;;4.60;;
80987;SDS011;70452;39.386;-3.210;2023-10-08T03:07:48;11.50;;;4.78;;
80987;SDS011;70452;39.386;-3.210;2023-10-08T03:10:19;11.13;;;5.57;;
80987;SDS011;70452;39.386;-3.210;2023-10-08T03:13:05;10.35;;;4.90;;
80987;SDS011;70452;39.386;-3.210;2023-10-08T03:15:38;11.55;;;5.32;;
80987;SDS011;70452;39.386;-3.210;2023-10-08T03:18:29;10.05;;;4.97;;
80987;SDS011;70452;39.386;-3.210;2023-10-08T03:21:06;17.15;;;6.00;;
80987;SDS011;70452;39.386;-3.210;2023-10-08T03:23:52;11.38;;;4.95;;
80987;SDS011;70452;39.386;-3.210;2023-10-08T03:26:34;11.95;;;5.60;;
80987;SDS011;70452;39.386;-3.210;2023-10-08T03:29:13;11.88;;;5.30;;
80987;SDS011;70452;39.386;-3.210;2023-10-08T03:31:54;10.38;;;4.82;;
80987;SDS011;70452;39.386;-3.210;2023-10-08T03:37:22;12.43;;;5.57;;
80987;SDS011;70452;39.386;-3.210;2023-10-08T03:40:07;12.50;;;5.65;;
80987;SDS011;70452;39.386;-3.210;2023-10-08T03:43:17;12.88;;;6.00;;
80987;SDS011;70452;39.386;-3.210;2023-10-08T03:46:00;10.68;;;5.63;;
80987;SDS011;70452;39.386;-3.210;2023-10-08T03:48:34;12.32;;;5.40;;
80987;SDS011;70452;39.386;-3.210;2023-10-08T03:51:30;11.85;;;5.30;;
80987;SDS011;70452;39.386;-3.210;2023-10-08T03:54:31;10.80;;;5.32;;
80987;SDS011;70452;39.386;-3.210;2023-10-08T03:57:07;14.25;;;6.65;;
80987;SDS011;70452;39.386;-3.210;2023-10-08T04:00:00;13.00;;;5.57;;
80987;SDS011;70452;39.386;-3.210;2023-10-08T04:02:36;12.27;;;5.78;;
80987;SDS011;70452;39.386;-3.210;2023-10-08T04:05:16;13.23;;;5.82;;
80987;SDS011;70452;39.386;-3.210;2023-10-08T04:07:51;10.70;;;5.53;;
80987;SDS011;70452;39.386;-3.210;2023-10-08T04:11:05;13.77;;;5.90;;
80987;SDS011;70452;39.386;-3.210;2023-10-08T04:14:05;11.38;;;6.07;;
80987;SDS011;70452;39.386;-3.210;2023-10-08T04:16:40;13.13;;;6.03;;
80987;SDS011;70452;39.386;-3.210;2023-10-08T04:19:18;13.77;;;6.13;;
80987;SDS011;70452;39.386;-3.210;2023-10-08T04:21:55;14.98;;;6.50;;
80987;SDS011;70452;39.386;-3.210;2023-10-08T04:24:36;13.20;;;6.22;;
80987;SDS011;70452;39.386;-3.210;2023-10-08T04:27:09;12.63;;;6.35;;
80987;SDS011;70452;39.386;-3.210;2023-10-08T04:32:51;15.15;;;6.35;;
80987;SDS011;70452;39.386;-3.210;2023-10-08T04:35:39;11.88;;;6.00;;
80987;SDS011;70452;39.386;-3.210;2023-10-08T04:38:24;13.40;;;7.13;;
80987;SDS011;70452;39.386;-3.210;2023-10-08T04:41:01;15.07;;;6.45;;
80987;SDS011;70452;39.386;-3.210;2023-10-08T04:46:15;14.73;;;6.68;;
80987;SDS011;70452;39.386;-3.210;2023-10-08T04:49:18;12.43;;;5.93;;
80987;SDS011;70452;39.386;-3.210;2023-10-08T04:52:07;13.95;;;6.63;;
80987;SDS011;70452;39.386;-3.210;2023-10-08T04:57:57;12.63;;;5.97;;
80987;SDS011;70452;39.386;-3.210;2023-10-08T05:00:47;14.60;;;6.97;;
80987;SDS011;70452;39.386;-3.210;2023-10-08T05:03:33;13.10;;;6.00;;
80987;SDS011;70452;39.386;-3.210;2023-10-08T05:06:27;13.32;;;6.65;;
80987;SDS011;70452;39.386;-3.210;2023-10-08T05:09:09;12.55;;;6.25;;
80987;SDS011;70452;39.386;-3.210;2023-10-08T05:11:39;13.88;;;6.85;;
80987;SDS011;70452;39.386;-3.210;2023-10-08T05:14:34;18.85;;;6.78;;
80987;SDS011;70452;39.386;-3.210;2023-10-08T05:17:25;15.10;;;6.57;;
80987;SDS011;70452;39.386;-3.210;2023-10-08T05:20:14;15.60;;;6.82;;
80987;SDS011;70452;39.386;-3.210;2023-10-08T05:26:03;12.43;;;6.70;;
80987;SDS011;70452;39.386;-3.210;2023-10-08T05:29:08;13.98;;;6.72;;
80987;SDS011;70452;39.386;-3.210;2023-10-08T05:31:55;15.98;;;7.65;;
80987;SDS011;70452;39.386;-3.210;2023-10-08T05:35:06;15.18;;;7.53;;
80987;SDS011;70452;39.386;-3.210;2023-10-08T05:38:20;12.68;;;6.68;;
80987;SDS011;70452;39.386;-3.210;2023-10-08T05:40:59;14.27;;;6.93;;
80987;SDS011;70452;39.386;-3.210;2023-10-08T05:43:54;14.27;;;7.32;;
80987;SDS011;70452;39.386;-3.210;2023-10-08T05:46:42;14.15;;;7.32;;
80987;SDS011;70452;39.386;-3.210;2023-10-08T05:49:23;13.23;;;6.75;;
80987;SDS011;70452;39.386;-3.210;2023-10-08T05:52:01;12.50;;;6.60;;
80987;SDS011;70452;39.386;-3.210;2023-10-08T05:54:49;15.38;;;6.78;;
80987;SDS011;70452;39.386;-3.210;2023-10-08T05:57:45;16.05;;;7.03;;
80987;SDS011;70452;39.386;-3.210;2023-10-08T06:00:38;15.00;;;8.40;;
80987;SDS011;70452;39.386;-3.210;2023-10-08T06:03:25;18.95;;;9.70;;
80987;SDS011;70452;39.386;-3.210;2023-10-08T06:06:12;21.10;;;9.27;;
80987;SDS011;70452;39.386;-3.210;2023-10-08T06:09:05;18.77;;;9.88;;
80987;SDS011;70452;39.386;-3.210;2023-10-08T06:11:49;19.85;;;9.90;;
80987;SDS011;70452;39.386;-3.210;2023-10-08T06:14:41;20.15;;;10.55;;
80987;SDS011;70452;39.386;-3.210;2023-10-08T06:20:23;15.48;;;8.50;;
80987;SDS011;70452;39.386;-3.210;2023-10-08T06:23:21;17.38;;;8.73;;
80987;SDS011;70452;39.386;-3.210;2023-10-08T06:26:19;14.32;;;7.35;;
80987;SDS011;70452;39.386;-3.210;2023-10-08T06:28:59;13.18;;;6.63;;
80987;SDS011;70452;39.386;-3.210;2023-10-08T06:31:46;12.88;;;6.63;;
80987;SDS011;70452;39.386;-3.210;2023-10-08T06:34:21;16.63;;;7.30;;
80987;SDS011;70452;39.386;-3.210;2023-10-08T06:36:57;16.40;;;7.35;;
80987;SDS011;70452;39.386;-3.210;2023-10-08T06:39:38;18.05;;;8.48;;
80987;SDS011;70452;39.386;-3.210;2023-10-08T06:42:18;12.23;;;6.05;;
80987;SDS011;70452;39.386;-3.210;2023-10-08T06:44:58;15.27;;;6.63;;
80987;SDS011;70452;39.386;-3.210;2023-10-08T06:47:54;13.57;;;6.40;;
80987;SDS011;70452;39.386;-3.210;2023-10-08T06:50:34;14.73;;;6.57;;
80987;SDS011;70452;39.386;-3.210;2023-10-08T06:53:09;14.30;;;6.47;;
80987;SDS011;70452;39.386;-3.210;2023-10-08T06:55:47;14.77;;;7.55;;
80987;SDS011;70452;39.386;-3.210;2023-10-08T06:58:27;13.25;;;6.38;;
80987;SDS011;70452;39.386;-3.210;2023-10-08T07:01:19;15.25;;;7.03;;
80987;SDS011;70452;39.386;-3.210;2023-10-08T07:04:06;13.25;;;6.47;;
80987;SDS011;70452;39.386;-3.210;2023-10-08T07:06:40;13.13;;;6.35;;
80987;SDS011;70452;39.386;-3.210;2023-10-08T07:09:26;13.95;;;6.60;;
80987;SDS011;70452;39.386;-3.210;2023-10-08T07:12:09;16.50;;;7.00;;
80987;SDS011;70452;39.386;-3.210;2023-10-08T07:14:42;13.73;;;6.30;;
80987;SDS011;70452;39.386;-3.210;2023-10-08T07:17:23;13.02;;;6.72;;
80987;SDS011;70452;39.386;-3.210;2023-10-08T07:20:06;14.35;;;6.40;;
80987;SDS011;70452;39.386;-3.210;2023-10-08T07:22:42;11.27;;;5.55;;
80987;SDS011;70452;39.386;-3.210;2023-10-08T07:25:25;14.68;;;6.85;;
80987;SDS011;70452;39.386;-3.210;2023-10-08T07:31:03;12.52;;;5.60;;
80987;SDS011;70452;39.386;-3.210;2023-10-08T07:33:41;14.10;;;6.35;;
80987;SDS011;70452;39.386;-3.210;2023-10-08T07:36:57;11.57;;;5.55;;
80987;SDS011;70452;39.386;-3.210;2023-10-08T07:39:38;12.63;;;6.00;;
80987;SDS011;70452;39.386;-3.210;2023-10-08T07:42:33;14.02;;;5.78;;
80987;SDS011;70452;39.386;-3.210;2023-10-08T07:45:02;13.45;;;6.13;;
80987;SDS011;70452;39.386;-3.210;2023-10-08T07:47:47;10.07;;;5.30;;
80987;SDS011;70452;39.386;-3.210;2023-10-08T07:50:26;14.82;;;6.55;;
80987;SDS011;70452;39.386;-3.210;2023-10-08T07:53:00;10.50;;;5.20;;
80987;SDS011;70452;39.386;-3.210;2023-10-08T07:58:21;9.50;;;5.00;;
80987;SDS011;70452;39.386;-3.210;2023-10-08T08:00:56;15.70;;;5.75;;
80987;SDS011;70452;39.386;-3.210;2023-10-08T08:03:47;13.18;;;4.82;;
80987;SDS011;70452;39.386;-3.210;2023-10-08T08:06:26;13.10;;;5.00;;
80987;SDS011;70452;39.386;-3.210;2023-10-08T08:08:56;8.85;;;4.57;;
80987;SDS011;70452;39.386;-3.210;2023-10-08T08:11:43;10.15;;;4.43;;
80987;SDS011;70452;39.386;-3.210;2023-10-08T08:14:15;13.95;;;5.10;;
80987;SDS011;70452;39.386;-3.210;2023-10-08T08:16:49;11.48;;;4.57;;
80987;SDS011;70452;39.386;-3.210;2023-10-08T08:19:37;10.82;;;5.10;;
80987;SDS011;70452;39.386;-3.210;2023-10-08T08:22:13;10.40;;;4.47;;
80987;SDS011;70452;39.386;-3.210;2023-10-08T08:24:56;10.48;;;5.38;;
80987;SDS011;70452;39.386;-3.210;2023-10-08T08:27:41;11.63;;;4.60;;
80987;SDS011;70452;39.386;-3.210;2023-10-08T08:30:14;10.95;;;5.40;;
80987;SDS011;70452;39.386;-3.210;2023-10-08T08:35:38;13.90;;;4.38;;
80987;SDS011;70452;39.386;-3.210;2023-10-08T08:38:43;11.73;;;5.63;;
80987;SDS011;70452;39.386;-3.210;2023-10-08T08:41:39;12.65;;;5.22;;
80987;SDS011;70452;39.386;-3.210;2023-10-08T08:44:15;10.50;;;3.97;;
80987;SDS011;70452;39.386;-3.210;2023-10-08T08:49:19;9.48;;;4.20;;
80987;SDS011;70452;39.386;-3.210;2023-10-08T08:51:55;9.07;;;3.53;;
80987;SDS011;70452;39.386;-3.210;2023-10-08T08:54:22;11.82;;;4.63;;
80987;SDS011;70452;39.386;-3.210;2023-10-08T08:56:49;12.80;;;5.15;;
80987;SDS011;70452;39.386;-3.210;2023-10-08T08:59:32;8.77;;;4.20;;
80987;SDS011;70452;39.386;-3.210;2023-10-08T09:02:13;8.73;;;3.72;;
80987;SDS011;70452;39.386;-3.210;2023-10-08T09:04:49;12.27;;;4.43;;
80987;SDS011;70452;39.386;-3.210;2023-10-08T09:07:30;10.95;;;3.65;;
80987;SDS011;70452;39.386;-3.210;2023-10-08T09:10:20;11.85;;;3.95;;
80987;SDS011;70452;39.386;-3.210;2023-10-08T09:13:02;10.90;;;3.88;;
80987;SDS011;70452;39.386;-3.210;2023-10-08T09:15:39;10.27;;;2.90;;
80987;SDS011;70452;39.386;-3.210;2023-10-08T09:18:11;8.20;;;2.58;;
80987;SDS011;70452;39.386;-3.210;2023-10-08T09:21:06;6.93;;;2.65;;
80987;SDS011;70452;39.386;-3.210;2023-10-08T09:23:38;9.13;;;3.20;;
80987;SDS011;70452;39.386;-3.210;2023-10-08T09:26:25;8.25;;;2.85;;
80987;SDS011;70452;39.386;-3.210;2023-10-08T09:29:16;7.40;;;2.63;;
80987;SDS011;70452;39.386;-3.210;2023-10-08T09:31:53;7.25;;;2.53;;
80987;SDS011;70452;39.386;-3.210;2023-10-08T09:34:39;8.20;;;2.70;;
80987;SDS011;70452;39.386;-3.210;2023-10-08T09:37:16;6.28;;;1.75;;
80987;SDS011;70452;39.386;-3.210;2023-10-08T09:39:50;9.70;;;2.55;;
80987;SDS011;70452;39.386;-3.210;2023-10-08T09:42:30;6.95;;;1.92;;
80987;SDS011;70452;39.386;-3.210;2023-10-08T09:45:07;6.90;;;2.22;;
80987;SDS011;70452;39.386;-3.210;2023-10-08T09:47:43;9.05;;;2.90;;
80987;SDS011;70452;39.386;-3.210;2023-10-08T09:50:27;8.90;;;2.42;;
80987;SDS011;70452;39.386;-3.210;2023-10-08T09:53:06;7.13;;;2.88;;
80987;SDS011;70452;39.386;-3.210;2023-10-08T09:55:39;11.65;;;3.42;;
80987;SDS011;70452;39.386;-3.210;2023-10-08T09:58:30;10.10;;;2.78;;
80987;SDS011;70452;39.386;-3.210;2023-10-08T10:01:09;8.43;;;2.45;;
80987;SDS011;70452;39.386;-3.210;2023-10-08T10:03:54;12.82;;;2.60;;
80987;SDS011;70452;39.386;-3.210;2023-10-08T10:06:45;12.35;;;2.65;;
80987;SDS011;70452;39.386;-3.210;2023-10-08T10:09:23;11.48;;;2.95;;
80987;SDS011;70452;39.386;-3.210;2023-10-08T10:11:54;7.10;;;2.00;;
80987;SDS011;70452;39.386;-3.210;2023-10-08T10:14:52;8.05;;;2.10;;
80987;SDS011;70452;39.386;-3.210;2023-10-08T10:17:46;11.07;;;2.85;;
80987;SDS011;70452;39.386;-3.210;2023-10-08T10:20:24;10.48;;;2.53;;
80987;SDS011;70452;39.386;-3.210;2023-10-08T10:23:20;13.38;;;3.28;;
80987;SDS011;70452;39.386;-3.210;2023-10-08T10:34:55;6.40;;;2.67;;
80987;SDS011;70452;39.386;-3.210;2023-10-08T10:37:29;6.22;;;2.03;;
80987;SDS011;70452;39.386;-3.210;2023-10-08T10:46:33;8.02;;;2.35;;
80987;SDS011;70452;39.386;-3.210;2023-10-08T10:49:12;9.38;;;2.20;;
80987;SDS011;70452;39.386;-3.210;2023-10-08T10:52:07;10.25;;;2.42;;
80987;SDS011;70452;39.386;-3.210;2023-10-08T10:54:49;8.43;;;2.67;;
80987;SDS011;70452;39.386;-3.210;2023-10-08T10:57:24;12.02;;;2.60;;
80987;SDS011;70452;39.386;-3.210;2023-10-08T11:00:03;7.72;;;2.58;;
80987;SDS011;70452;39.386;-3.210;2023-10-08T11:02:54;7.55;;;2.42;;
80987;SDS011;70452;39.386;-3.210;2023-10-08T11:05:43;8.63;;;2.55;;
80987;SDS011;70452;39.386;-3.210;2023-10-08T11:11:26;9.02;;;2.78;;
80987;SDS011;70452;39.386;-3.210;2023-10-08T11:14:12;8.82;;;2.85;;
80987;SDS011;70452;39.386;-3.210;2023-10-08T11:17:09;8.63;;;1.95;;
80987;SDS011;70452;39.386;-3.210;2023-10-08T11:19:52;8.52;;;4.05;;
80987;SDS011;70452;39.386;-3.210;2023-10-08T11:26:17;7.93;;;1.88;;
80987;SDS011;70452;39.386;-3.210;2023-10-08T11:29:01;9.45;;;2.13;;
80987;SDS011;70452;39.386;-3.210;2023-10-08T11:35:14;8.60;;;2.78;;
80987;SDS011;70452;39.386;-3.210;2023-10-08T11:38:05;9.18;;;2.28;;
80987;SDS011;70452;39.386;-3.210;2023-10-08T11:43:30;13.27;;;4.97;;
80987;SDS011;70452;39.386;-3.210;2023-10-08T11:46:01;11.38;;;4.25;;
80987;SDS011;70452;39.386;-3.210;2023-10-08T11:48:31;13.40;;;2.83;;
80987;SDS011;70452;39.386;-3.210;2023-10-08T11:54:31;8.10;;;2.63;;
80987;SDS011;70452;39.386;-3.210;2023-10-08T11:57:22;11.77;;;2.38;;
80987;SDS011;70452;39.386;-3.210;2023-10-08T12:00:12;8.68;;;2.63;;
80987;SDS011;70452;39.386;-3.210;2023-10-08T12:05:55;5.95;;;1.73;;
80987;SDS011;70452;39.386;-3.210;2023-10-08T12:08:41;11.80;;;2.60;;
80987;SDS011;70452;39.386;-3.210;2023-10-08T12:11:13;9.57;;;3.15;;
80987;SDS011;70452;39.386;-3.210;2023-10-08T12:14:17;8.38;;;2.80;;
80987;SDS011;70452;39.386;-3.210;2023-10-08T12:16:47;13.43;;;3.45;;
80987;SDS011;70452;39.386;-3.210;2023-10-08T12:19:23;6.88;;;2.40;;
80987;SDS011;70452;39.386;-3.210;2023-10-08T12:21:59;8.15;;;2.65;;
80987;SDS011;70452;39.386;-3.210;2023-10-08T12:24:37;9.25;;;2.80;;
80987;SDS011;70452;39.386;-3.210;2023-10-08T12:27:30;7.60;;;1.90;;
80987;SDS011;70452;39.386;-3.210;2023-10-08T12:30:20;7.10;;;2.33;;
80987;SDS011;70452;39.386;-3.210;2023-10-08T12:33:01;9.20;;;2.22;;
80987;SDS011;70452;39.386;-3.210;2023-10-08T12:35:35;8.57;;;2.20;;
80987;SDS011;70452;39.386;-3.210;2023-10-08T12:38:27;7.10;;;2.53;;
80987;SDS011;70452;39.386;-3.210;2023-10-08T12:40:59;7.18;;;2.13;;
80987;SDS011;70452;39.386;-3.210;2023-10-08T12:43:41;10.57;;;4.28;;
80987;SDS011;70452;39.386;-3.210;2023-10-08T12:46:27;15.25;;;3.50;;
80987;SDS011;70452;39.386;-3.210;2023-10-08T12:49:08;9.15;;;2.13;;
80987;SDS011;70452;39.386;-3.210;2023-10-08T12:51:36;5.93;;;1.52;;
80987;SDS011;70452;39.386;-3.210;2023-10-08T12:57:11;7.00;;;1.90;;
80987;SDS011;70452;39.386;-3.210;2023-10-08T12:59:58;9.75;;;2.67;;
80987;SDS011;70452;39.386;-3.210;2023-10-08T13:02:38;9.65;;;2.13;;
80987;SDS011;70452;39.386;-3.210;2023-10-08T13:08:11;10.55;;;3.03;;
80987;SDS011;70452;39.386;-3.210;2023-10-08T13:10:53;8.05;;;1.98;;
80987;SDS011;70452;39.386;-3.210;2023-10-08T13:17:00;7.78;;;2.35;;
80987;SDS011;70452;39.386;-3.210;2023-10-08T13:22:19;7.95;;;2.20;;
80987;SDS011;70452;39.386;-3.210;2023-10-08T13:25:01;7.07;;;1.92;;
80987;SDS011;70452;39.386;-3.210;2023-10-08T13:27:33;7.45;;;2.35;;
80987;SDS011;70452;39.386;-3.210;2023-10-08T13:33:03;5.70;;;2.05;;
80987;SDS011;70452;39.386;-3.210;2023-10-08T13:35:46;8.30;;;2.00;;
80987;SDS011;70452;39.386;-3.210;2023-10-08T13:38:41;4.95;;;1.35;;
80987;SDS011;70452;39.386;-3.210;2023-10-08T13:41:08;10.02;;;3.03;;
80987;SDS011;70452;39.386;-3.210;2023-10-08T13:43:57;7.60;;;1.42;;
80987;SDS011;70452;39.386;-3.210;2023-10-08T13:46:36;5.72;;;1.73;;
80987;SDS011;70452;39.386;-3.210;2023-10-08T13:49:16;6.03;;;1.55;;
80987;SDS011;70452;39.386;-3.210;2023-10-08T13:52:06;8.85;;;3.03;;
80987;SDS011;70452;39.386;-3.210;2023-10-08T13:54:55;13.43;;;3.85;;
80987;SDS011;70452;39.386;-3.210;2023-10-08T13:57:28;7.43;;;1.20;;
80987;SDS011;70452;39.386;-3.210;2023-10-08T14:00:01;9.35;;;3.25;;
80987;SDS011;70452;39.386;-3.210;2023-10-08T14:02:41;6.72;;;2.20;;
80987;SDS011;70452;39.386;-3.210;2023-10-08T14:05:19;5.50;;;1.67;;
80987;SDS011;70452;39.386;-3.210;2023-10-08T14:07:51;6.30;;;1.88;;
80987;SDS011;70452;39.386;-3.210;2023-10-08T14:10:29;5.68;;;1.30;;
80987;SDS011;70452;39.386;-3.210;2023-10-08T14:13:02;6.45;;;1.40;;
80987;SDS011;70452;39.386;-3.210;2023-10-08T14:15:48;6.63;;;1.48;;
80987;SDS011;70452;39.386;-3.210;2023-10-08T14:18:24;5.95;;;1.77;;
80987;SDS011;70452;39.386;-3.210;2023-10-08T14:21:12;4.88;;;1.35;;
80987;SDS011;70452;39.386;-3.210;2023-10-08T14:24:03;5.78;;;1.67;;
80987;SDS011;70452;39.386;-3.210;2023-10-08T14:26:46;8.23;;;1.35;;
80987;SDS011;70452;39.386;-3.210;2023-10-08T14:29:26;6.60;;;1.58;;
80987;SDS011;70452;39.386;-3.210;2023-10-08T14:32:14;7.05;;;2.25;;
80987;SDS011;70452;39.386;-3.210;2023-10-08T14:35:05;6.28;;;1.38;;
80987;SDS011;70452;39.386;-3.210;2023-10-08T14:38:05;9.15;;;1.30;;
80987;SDS011;70452;39.386;-3.210;2023-10-08T14:41:01;6.30;;;1.65;;
80987;SDS011;70452;39.386;-3.210;2023-10-08T14:43:45;7.53;;;1.00;;
80987;SDS011;70452;39.386;-3.210;2023-10-08T14:46:21;6.93;;;1.63;;
80987;SDS011;70452;39.386;-3.210;2023-10-08T14:54:31;6.53;;;2.00;;
80987;SDS011;70452;39.386;-3.210;2023-10-08T14:57:03;7.22;;;1.42;;
80987;SDS011;70452;39.386;-3.210;2023-10-08T14:59:43;5.18;;;1.50;;
80987;SDS011;70452;39.386;-3.210;2023-10-08T15:02:44;5.78;;;1.45;;
80987;SDS011;70452;39.386;-3.210;2023-10-08T15:05:25;5.80;;;2.15;;
80987;SDS011;70452;39.386;-3.210;2023-10-08T15:08:15;8.68;;;2.22;;
80987;SDS011;70452;39.386;-3.210;2023-10-08T15:10:55;8.55;;;1.42;;
80987;SDS011;70452;39.386;-3.210;2023-10-08T15:13:34;6.78;;;1.65;;
80987;SDS011;70452;39.386;-3.210;2023-10-08T15:16:23;7.03;;;1.70;;
80987;SDS011;70452;39.386;-3.210;2023-10-08T15:19:05;7.47;;;2.00;;
80987;SDS011;70452;39.386;-3.210;2023-10-08T15:21:54;6.63;;;2.42;;
80987;SDS011;70452;39.386;-3.210;2023-10-08T15:24:38;8.23;;;1.38;;
80987;SDS011;70452;39.386;-3.210;2023-10-08T15:27:09;7.75;;;1.98;;
80987;SDS011;70452;39.386;-3.210;2023-10-08T15:29:40;5.10;;;1.42;;
80987;SDS011;70452;39.386;-3.210;2023-10-08T15:32:20;8.50;;;2.13;;
80987;SDS011;70452;39.386;-3.210;2023-10-08T15:35:28;9.70;;;1.55;;
80987;SDS011;70452;39.386;-3.210;2023-10-08T15:37:54;9.23;;;1.70;;
80987;SDS011;70452;39.386;-3.210;2023-10-08T15:40:42;6.03;;;2.00;;
80987;SDS011;70452;39.386;-3.210;2023-10-08T15:43:14;8.32;;;1.60;;
80987;SDS011;70452;39.386;-3.210;2023-10-08T15:45:51;7.15;;;1.60;;
80987;SDS011;70452;39.386;-3.210;2023-10-08T15:48:18;6.93;;;2.03;;
80987;SDS011;70452;39.386;-3.210;2023-10-08T15:51:03;6.60;;;1.80;;
80987;SDS011;70452;39.386;-3.210;2023-10-08T15:53:38;7.85;;;1.92;;
80987;SDS011;70452;39.386;-3.210;2023-10-08T15:56:08;5.10;;;1.85;;
80987;SDS011;70452;39.386;-3.210;2023-10-08T15:59:18;7.65;;;1.42;;
80987;SDS011;70452;39.386;-3.210;2023-10-08T16:01:52;9.05;;;2.22;;
80987;SDS011;70452;39.386;-3.210;2023-10-08T16:04:26;4.82;;;1.58;;
80987;SDS011;70452;39.386;-3.210;2023-10-08T16:10:07;7.60;;;1.65;;
80987;SDS011;70452;39.386;-3.210;2023-10-08T16:12:55;6.35;;;1.63;;
80987;SDS011;70452;39.386;-3.210;2023-10-08T16:15:22;5.70;;;1.70;;
80987;SDS011;70452;39.386;-3.210;2023-10-08T16:17:48;6.07;;;1.98;;
80987;SDS011;70452;39.386;-3.210;2023-10-08T16:20:17;5.32;;;1.63;;
80987;SDS011;70452;39.386;-3.210;2023-10-08T16:22:49;7.18;;;1.98;;
80987;SDS011;70452;39.386;-3.210;2023-10-08T16:25:40;5.60;;;1.70;;
80987;SDS011;70452;39.386;-3.210;2023-10-08T16:28:17;9.27;;;1.80;;
80987;SDS011;70452;39.386;-3.210;2023-10-08T16:30:44;6.70;;;2.22;;
80987;SDS011;70452;39.386;-3.210;2023-10-08T16:33:37;6.63;;;1.45;;
80987;SDS011;70452;39.386;-3.210;2023-10-08T16:36:03;7.07;;;2.28;;
80987;SDS011;70452;39.386;-3.210;2023-10-08T16:38:39;5.63;;;1.30;;
80987;SDS011;70452;39.386;-3.210;2023-10-08T16:41:06;6.95;;;2.03;;
80987;SDS011;70452;39.386;-3.210;2023-10-08T16:43:42;5.97;;;1.38;;
80987;SDS011;70452;39.386;-3.210;2023-10-08T16:46:08;7.72;;;1.75;;
80987;SDS011;70452;39.386;-3.210;2023-10-08T16:48:40;7.70;;;1.55;;
80987;SDS011;70452;39.386;-3.210;2023-10-08T16:51:27;9.95;;;2.05;;
80987;SDS011;70452;39.386;-3.210;2023-10-08T16:53:53;7.88;;;1.63;;
80987;SDS011;70452;39.386;-3.210;2023-10-08T16:56:21;7.38;;;2.92;;
80987;SDS011;70452;39.386;-3.210;2023-10-08T16:58:51;8.65;;;1.60;;
80987;SDS011;70452;39.386;-3.210;2023-10-08T17:01:47;7.72;;;1.55;;
80987;SDS011;70452;39.386;-3.210;2023-10-08T17:04:19;5.53;;;1.13;;
80987;SDS011;70452;39.386;-3.210;2023-10-08T17:07:00;6.88;;;1.67;;
80987;SDS011;70452;39.386;-3.210;2023-10-08T17:09:33;5.53;;;1.17;;
80987;SDS011;70452;39.386;-3.210;2023-10-08T17:12:10;5.38;;;1.20;;
80987;SDS011;70452;39.386;-3.210;2023-10-08T17:14:54;11.30;;;2.00;;
80987;SDS011;70452;39.386;-3.210;2023-10-08T17:17:31;6.40;;;1.52;;
80987;SDS011;70452;39.386;-3.210;2023-10-08T17:20:03;6.13;;;1.95;;
80987;SDS011;70452;39.386;-3.210;2023-10-08T17:22:42;6.80;;;2.03;;
80987;SDS011;70452;39.386;-3.210;2023-10-08T17:28:06;5.88;;;1.95;;
80987;SDS011;70452;39.386;-3.210;2023-10-08T17:30:42;6.57;;;1.42;;
80987;SDS011;70452;39.386;-3.210;2023-10-08T17:36:21;13.48;;;1.83;;